sensor_id;sensor_type;location;lat;lon;timestamp;temperature;humidity
66586;SHT30;53444;45.822;16.092;2023-12-20T00:00:48;0.30;95.61
66586;SHT30;53444;45.822;16.092;2023-12-20T00:03:15;0.35;95.36
66586;SHT30;53444;45.822;16.092;2023-12-20T00:05:42;0.38;95.09
66586;SHT30;53444;45.822;16.092;2023-12-20T00:08:09;0.32;95.39
66586;SHT30;53444;45.822;16.092;2023-12-20T00:10:38;0.32;95.30
66586;SHT30;53444;45.822;16.092;2023-12-20T00:13:04;0.29;95.18
66586;SHT30;53444;45.822;16.092;2023-12-20T00:15:32;0.26;95.16
66586;SHT30;53444;45.822;16.092;2023-12-20T00:17:59;0.19;95.45
66586;SHT30;53444;45.822;16.092;2023-12-20T00:20:26;-0.05;95.92
66586;SHT30;53444;45.822;16.092;2023-12-20T00:22:54;0.09;95.64
66586;SHT30;53444;45.822;16.092;2023-12-20T00:25:21;-0.01;96.06
66586;SHT30;53444;45.822;16.092;2023-12-20T00:27:49;0.04;95.98
66586;SHT30;53444;45.822;16.092;2023-12-20T00:30:16;0.11;95.72
66586;SHT30;53444;45.822;16.092;2023-12-20T00:32:43;0.05;95.61
66586;SHT30;53444;45.822;16.092;2023-12-20T00:35:12;0.09;95.69
66586;SHT30;53444;45.822;16.092;2023-12-20T00:37:39;0.15;95.46
66586;SHT30;53444;45.822;16.092;2023-12-20T00:40:06;0.12;95.35
66586;SHT30;53444;45.822;16.092;2023-12-20T00:42:33;0.08;95.25
66586;SHT30;53444;45.822;16.092;2023-12-20T00:45:02;0.08;95.41
66586;SHT30;53444;45.822;16.092;2023-12-20T00:47:30;0.09;95.35
66586;SHT30;53444;45.822;16.092;2023-12-20T00:49:57;0.01;95.16
66586;SHT30;53444;45.822;16.092;2023-12-20T00:52:24;0.01;95.38
66586;SHT30;53444;45.822;16.092;2023-12-20T00:54:51;-0.01;95.69
66586;SHT30;53444;45.822;16.092;2023-12-20T00:57:18;-0.01;95.44
66586;SHT30;53444;45.822;16.092;2023-12-20T00:59:45;-0.02;95.37
66586;SHT30;53444;45.822;16.092;2023-12-20T01:02:13;-0.01;95.38
66586;SHT30;53444;45.822;16.092;2023-12-20T01:04:40;0.02;94.70
66586;SHT30;53444;45.822;16.092;2023-12-20T01:07:07;-0.37;96.05
66586;SHT30;53444;45.822;16.092;2023-12-20T01:09:34;-0.22;95.37
66586;SHT30;53444;45.822;16.092;2023-12-20T01:12:01;-0.54;96.19
66586;SHT30;53444;45.822;16.092;2023-12-20T01:14:28;-0.58;96.43
66586;SHT30;53444;45.822;16.092;2023-12-20T01:16:54;-0.64;96.59
66586;SHT30;53444;45.822;16.092;2023-12-20T01:19:24;-0.58;96.33
66586;SHT30;53444;45.822;16.092;2023-12-20T01:21:52;-0.61;96.69
66586;SHT30;53444;45.822;16.092;2023-12-20T01:24:19;-0.57;96.59
66586;SHT30;53444;45.822;16.092;2023-12-20T01:26:46;-0.49;96.12
66586;SHT30;53444;45.822;16.092;2023-12-20T01:29:12;-0.40;95.57
66586;SHT30;53444;45.822;16.092;2023-12-20T01:31:40;-0.53;95.69
66586;SHT30;53444;45.822;16.092;2023-12-20T01:34:07;-0.44;95.53
66586;SHT30;53444;45.822;16.092;2023-12-20T01:36:35;-0.57;95.79
66586;SHT30;53444;45.822;16.092;2023-12-20T01:39:02;-0.56;95.73
66586;SHT30;53444;45.822;16.092;2023-12-20T01:41:29;-0.52;95.84
66586;SHT30;53444;45.822;16.092;2023-12-20T01:43:55;-0.57;95.87
66586;SHT30;53444;45.822;16.092;2023-12-20T01:46:22;-0.57;96.12
66586;SHT30;53444;45.822;16.092;2023-12-20T01:48:49;-0.81;97.00
66586;SHT30;53444;45.822;16.092;2023-12-20T01:51:16;-0.74;96.78
66586;SHT30;53444;45.822;16.092;2023-12-20T01:53:45;-0.99;97.24
66586;SHT30;53444;45.822;16.092;2023-12-20T01:56:13;-0.64;96.92
66586;SHT30;53444;45.822;16.092;2023-12-20T01:58:43;-0.52;95.87
66586;SHT30;53444;45.822;16.092;2023-12-20T02:01:11;-0.67;96.07
66586;SHT30;53444;45.822;16.092;2023-12-20T02:03:39;-0.74;96.45
66586;SHT30;53444;45.822;16.092;2023-12-20T02:06:07;-0.67;96.65
66586;SHT30;53444;45.822;16.092;2023-12-20T02:08:34;-0.58;96.38
66586;SHT30;53444;45.822;16.092;2023-12-20T02:11:02;-0.50;95.82
66586;SHT30;53444;45.822;16.092;2023-12-20T02:13:30;-0.45;95.44
66586;SHT30;53444;45.822;16.092;2023-12-20T02:15:57;-0.47;95.32
66586;SHT30;53444;45.822;16.092;2023-12-20T02:18:24;-0.52;95.21
66586;SHT30;53444;45.822;16.092;2023-12-20T02:20:51;-0.56;95.59
66586;SHT30;53444;45.822;16.092;2023-12-20T02:23:19;-0.75;96.24
66586;SHT30;53444;45.822;16.092;2023-12-20T02:25:46;-0.74;96.63
66586;SHT30;53444;45.822;16.092;2023-12-20T02:28:13;-0.68;96.62
66586;SHT30;53444;45.822;16.092;2023-12-20T02:30:40;-0.68;96.58
66586;SHT30;53444;45.822;16.092;2023-12-20T02:33:10;-0.64;96.52
66586;SHT30;53444;45.822;16.092;2023-12-20T02:35:38;-0.67;96.82
66586;SHT30;53444;45.822;16.092;2023-12-20T02:38:05;-0.70;97.42
66586;SHT30;53444;45.822;16.092;2023-12-20T02:40:33;-0.70;98.23
66586;SHT30;53444;45.822;16.092;2023-12-20T02:43:00;-0.84;98.48
66586;SHT30;53444;45.822;16.092;2023-12-20T02:45:27;-0.83;98.54
66586;SHT30;53444;45.822;16.092;2023-12-20T02:47:54;-0.71;98.47
66586;SHT30;53444;45.822;16.092;2023-12-20T02:50:21;-0.85;98.22
66586;SHT30;53444;45.822;16.092;2023-12-20T02:52:48;-0.94;98.45
66586;SHT30;53444;45.822;16.092;2023-12-20T02:55:14;-0.95;98.83
66586;SHT30;53444;45.822;16.092;2023-12-20T02:57:43;-0.92;98.56
66586;SHT30;53444;45.822;16.092;2023-12-20T03:00:10;-0.92;98.79
66586;SHT30;53444;45.822;16.092;2023-12-20T03:02:37;-0.91;99.01
66586;SHT30;53444;45.822;16.092;2023-12-20T03:05:04;-0.95;99.20
66586;SHT30;53444;45.822;16.092;2023-12-20T03:07:31;-0.99;98.99
66586;SHT30;53444;45.822;16.092;2023-12-20T03:09:58;-0.89;99.58
66586;SHT30;53444;45.822;16.092;2023-12-20T03:12:25;-0.89;99.21
66586;SHT30;53444;45.822;16.092;2023-12-20T03:14:53;-1.09;99.90
66586;SHT30;53444;45.822;16.092;2023-12-20T03:17:20;-0.96;99.18
66586;SHT30;53444;45.822;16.092;2023-12-20T03:19:47;-1.19;99.51
66586;SHT30;53444;45.822;16.092;2023-12-20T03:22:13;-1.22;99.99
66586;SHT30;53444;45.822;16.092;2023-12-20T03:24:40;-1.18;99.99
66586;SHT30;53444;45.822;16.092;2023-12-20T03:27:07;-1.34;99.99
66586;SHT30;53444;45.822;16.092;2023-12-20T03:29:34;-1.22;99.99
66586;SHT30;53444;45.822;16.092;2023-12-20T03:32:03;-1.01;99.99
66586;SHT30;53444;45.822;16.092;2023-12-20T03:34:30;-0.99;99.99
66586;SHT30;53444;45.822;16.092;2023-12-20T03:36:56;-0.96;99.99
66586;SHT30;53444;45.822;16.092;2023-12-20T03:39:23;-1.09;99.99
66586;SHT30;53444;45.822;16.092;2023-12-20T03:41:50;-1.19;99.99
66586;SHT30;53444;45.822;16.092;2023-12-20T03:44:17;-1.38;99.99
66586;SHT30;53444;45.822;16.092;2023-12-20T03:46:44;-1.34;99.99
66586;SHT30;53444;45.822;16.092;2023-12-20T03:49:13;-1.26;99.99
66586;SHT30;53444;45.822;16.092;2023-12-20T03:51:40;-1.19;99.99
66586;SHT30;53444;45.822;16.092;2023-12-20T03:54:07;-1.16;99.99
66586;SHT30;53444;45.822;16.092;2023-12-20T03:56:34;-1.06;99.99
66586;SHT30;53444;45.822;16.092;2023-12-20T03:59:00;-0.99;99.99
66586;SHT30;53444;45.822;16.092;2023-12-20T04:01:27;-1.01;99.71
66586;SHT30;53444;45.822;16.092;2023-12-20T04:03:54;-1.13;99.80
66586;SHT30;53444;45.822;16.092;2023-12-20T04:06:22;-1.19;99.99
66586;SHT30;53444;45.822;16.092;2023-12-20T04:08:49;-1.32;99.99
66586;SHT30;53444;45.822;16.092;2023-12-20T04:11:16;-1.25;99.99
66586;SHT30;53444;45.822;16.092;2023-12-20T04:13:43;-1.29;99.99
66586;SHT30;53444;45.822;16.092;2023-12-20T04:16:09;-1.38;99.99
66586;SHT30;53444;45.822;16.092;2023-12-20T04:18:36;-1.16;99.80
66586;SHT30;53444;45.822;16.092;2023-12-20T04:21:04;-1.24;99.96
66586;SHT30;53444;45.822;16.092;2023-12-20T04:23:32;-1.26;99.56
66586;SHT30;53444;45.822;16.092;2023-12-20T04:25:58;-1.20;99.56
66586;SHT30;53444;45.822;16.092;2023-12-20T04:28:25;-1.43;98.88
66586;SHT30;53444;45.822;16.092;2023-12-20T04:30:55;-1.31;99.44
66586;SHT30;53444;45.822;16.092;2023-12-20T04:33:22;-1.35;99.20
66586;SHT30;53444;45.822;16.092;2023-12-20T04:35:49;-1.31;98.93
66586;SHT30;53444;45.822;16.092;2023-12-20T04:38:16;-1.32;98.72
66586;SHT30;53444;45.822;16.092;2023-12-20T04:40:44;-1.45;98.71
66586;SHT30;53444;45.822;16.092;2023-12-20T04:43:11;-1.47;98.79
66586;SHT30;53444;45.822;16.092;2023-12-20T04:45:37;-1.47;98.68
66586;SHT30;53444;45.822;16.092;2023-12-20T04:48:05;-1.56;98.57
66586;SHT30;53444;45.822;16.092;2023-12-20T04:50:32;-1.46;98.54
66586;SHT30;53444;45.822;16.092;2023-12-20T04:53:00;-1.47;98.16
66586;SHT30;53444;45.822;16.092;2023-12-20T04:55:26;-1.57;98.33
66586;SHT30;53444;45.822;16.092;2023-12-20T04:57:55;-1.53;98.36
66586;SHT30;53444;45.822;16.092;2023-12-20T05:00:22;-1.47;97.92
66586;SHT30;53444;45.822;16.092;2023-12-20T05:02:48;-1.50;97.78
66586;SHT30;53444;45.822;16.092;2023-12-20T05:05:15;-1.55;97.46
66586;SHT30;53444;45.822;16.092;2023-12-20T05:07:43;-1.55;97.38
66586;SHT30;53444;45.822;16.092;2023-12-20T05:10:10;-1.60;97.14
66586;SHT30;53444;45.822;16.092;2023-12-20T05:12:36;-1.55;97.02
66586;SHT30;53444;45.822;16.092;2023-12-20T05:15:06;-1.71;97.20
66586;SHT30;53444;45.822;16.092;2023-12-20T05:17:33;-1.69;97.93
66586;SHT30;53444;45.822;16.092;2023-12-20T05:20:00;-1.56;97.64
66586;SHT30;53444;45.822;16.092;2023-12-20T05:22:27;-1.49;97.14
66586;SHT30;53444;45.822;16.092;2023-12-20T05:24:54;-1.53;97.06
66586;SHT30;53444;45.822;16.092;2023-12-20T05:27:20;-1.70;97.98
66586;SHT30;53444;45.822;16.092;2023-12-20T05:29:47;-1.60;97.35
66586;SHT30;53444;45.822;16.092;2023-12-20T05:32:16;-1.71;97.48
66586;SHT30;53444;45.822;16.092;2023-12-20T05:34:43;-1.67;97.18
66586;SHT30;53444;45.822;16.092;2023-12-20T05:37:10;-1.62;96.97
66586;SHT30;53444;45.822;16.092;2023-12-20T05:39:37;-1.59;96.89
66586;SHT30;53444;45.822;16.092;2023-12-20T05:42:04;-1.64;97.14
66586;SHT30;53444;45.822;16.092;2023-12-20T05:44:31;-1.62;96.72
66586;SHT30;53444;45.822;16.092;2023-12-20T05:46:58;-1.67;96.74
66586;SHT30;53444;45.822;16.092;2023-12-20T05:49:26;-1.64;96.85
66586;SHT30;53444;45.822;16.092;2023-12-20T05:51:57;-1.66;96.75
66586;SHT30;53444;45.822;16.092;2023-12-20T05:54:25;-1.73;97.06
66586;SHT30;53444;45.822;16.092;2023-12-20T05:56:55;-1.67;96.97
66586;SHT30;53444;45.822;16.092;2023-12-20T05:59:23;-1.62;96.93
66586;SHT30;53444;45.822;16.092;2023-12-20T06:01:59;-1.71;97.16
66586;SHT30;53444;45.822;16.092;2023-12-20T06:04:35;-1.66;96.91
66586;SHT30;53444;45.822;16.092;2023-12-20T06:07:02;-1.69;97.21
66586;SHT30;53444;45.822;16.092;2023-12-20T06:09:34;-1.69;97.05
66586;SHT30;53444;45.822;16.092;2023-12-20T06:12:04;-1.60;97.10
66586;SHT30;53444;45.822;16.092;2023-12-20T06:14:31;-1.52;96.93
66586;SHT30;53444;45.822;16.092;2023-12-20T06:16:58;-1.47;97.03
66586;SHT30;53444;45.822;16.092;2023-12-20T06:19:27;-1.47;98.01
66586;SHT30;53444;45.822;16.092;2023-12-20T06:21:58;-1.40;98.13
66586;SHT30;53444;45.822;16.092;2023-12-20T06:24:32;-1.45;98.24
66586;SHT30;53444;45.822;16.092;2023-12-20T06:26:59;-1.62;96.87
66586;SHT30;53444;45.822;16.092;2023-12-20T06:29:30;-2.01;97.18
66586;SHT30;53444;45.822;16.092;2023-12-20T06:31:57;-2.18;97.88
66586;SHT30;53444;45.822;16.092;2023-12-20T06:34:24;-2.37;98.75
66586;SHT30;53444;45.822;16.092;2023-12-20T06:36:51;-2.07;98.69
66586;SHT30;53444;45.822;16.092;2023-12-20T06:39:19;-2.15;98.81
66586;SHT30;53444;45.822;16.092;2023-12-20T06:41:46;-2.59;99.47
66586;SHT30;53444;45.822;16.092;2023-12-20T06:44:13;-2.60;99.99
66586;SHT30;53444;45.822;16.092;2023-12-20T06:46:40;-2.55;99.99
66586;SHT30;53444;45.822;16.092;2023-12-20T06:49:07;-2.53;99.99
66586;SHT30;53444;45.822;16.092;2023-12-20T06:51:33;-2.48;99.99
66586;SHT30;53444;45.822;16.092;2023-12-20T06:54:00;-2.38;99.99
66586;SHT30;53444;45.822;16.092;2023-12-20T06:56:29;-2.25;99.99
66586;SHT30;53444;45.822;16.092;2023-12-20T06:58:56;-2.17;99.99
66586;SHT30;53444;45.822;16.092;2023-12-20T07:01:22;-1.97;99.99
66586;SHT30;53444;45.822;16.092;2023-12-20T07:03:49;-1.80;99.99
66586;SHT30;53444;45.822;16.092;2023-12-20T07:06:16;-1.66;99.99
66586;SHT30;53444;45.822;16.092;2023-12-20T07:08:43;-1.56;99.99
66586;SHT30;53444;45.822;16.092;2023-12-20T07:11:10;-1.50;99.85
66586;SHT30;53444;45.822;16.092;2023-12-20T07:13:38;-1.45;99.66
66586;SHT30;53444;45.822;16.092;2023-12-20T07:16:05;-1.42;99.66
66586;SHT30;53444;45.822;16.092;2023-12-20T07:18:32;-1.52;99.84
66586;SHT30;53444;45.822;16.092;2023-12-20T07:20:59;-1.34;99.82
66586;SHT30;53444;45.822;16.092;2023-12-20T07:23:26;-1.28;99.56
66586;SHT30;53444;45.822;16.092;2023-12-20T07:25:53;-1.26;99.39
66586;SHT30;53444;45.822;16.092;2023-12-20T07:28:20;-1.24;99.39
66586;SHT30;53444;45.822;16.092;2023-12-20T07:30:48;-1.16;99.19
66586;SHT30;53444;45.822;16.092;2023-12-20T07:33:15;-1.12;99.00
66586;SHT30;53444;45.822;16.092;2023-12-20T07:35:45;-1.05;98.76
66586;SHT30;53444;45.822;16.092;2023-12-20T07:38:11;-1.08;98.28
66586;SHT30;53444;45.822;16.092;2023-12-20T07:40:38;-1.09;98.12
66586;SHT30;53444;45.822;16.092;2023-12-20T07:43:05;-1.18;97.97
66586;SHT30;53444;45.822;16.092;2023-12-20T07:45:32;-1.12;97.99
66586;SHT30;53444;45.822;16.092;2023-12-20T07:48:00;-1.09;97.94
66586;SHT30;53444;45.822;16.092;2023-12-20T07:50:27;-0.91;97.33
66586;SHT30;53444;45.822;16.092;2023-12-20T07:52:54;-1.05;97.30
66586;SHT30;53444;45.822;16.092;2023-12-20T07:55:21;-0.91;97.28
66586;SHT30;53444;45.822;16.092;2023-12-20T07:57:48;-0.91;97.21
66586;SHT30;53444;45.822;16.092;2023-12-20T08:00:15;-0.87;97.20
66586;SHT30;53444;45.822;16.092;2023-12-20T08:02:42;-0.83;96.91
66586;SHT30;53444;45.822;16.092;2023-12-20T08:05:10;-0.89;96.85
66586;SHT30;53444;45.822;16.092;2023-12-20T08:07:37;-0.74;96.56
66586;SHT30;53444;45.822;16.092;2023-12-20T08:10:08;-0.70;96.12
66586;SHT30;53444;45.822;16.092;2023-12-20T08:12:35;-0.53;95.58
66586;SHT30;53444;45.822;16.092;2023-12-20T08:15:01;-0.70;95.84
66586;SHT30;53444;45.822;16.092;2023-12-20T08:17:29;-0.49;95.63
66586;SHT30;53444;45.822;16.092;2023-12-20T08:19:56;-0.49;96.26
66586;SHT30;53444;45.822;16.092;2023-12-20T08:22:24;-0.60;96.27
66586;SHT30;53444;45.822;16.092;2023-12-20T08:24:51;-0.75;97.07
66586;SHT30;53444;45.822;16.092;2023-12-20T08:27:18;-0.70;97.02
66586;SHT30;53444;45.822;16.092;2023-12-20T08:29:44;-0.74;97.20
66586;SHT30;53444;45.822;16.092;2023-12-20T08:32:11;-0.71;97.68
66586;SHT30;53444;45.822;16.092;2023-12-20T08:34:38;-0.44;97.10
66586;SHT30;53444;45.822;16.092;2023-12-20T08:37:05;-0.34;96.62
66586;SHT30;53444;45.822;16.092;2023-12-20T08:39:33;-0.26;96.11
66586;SHT30;53444;45.822;16.092;2023-12-20T08:42:00;-0.32;95.64
66586;SHT30;53444;45.822;16.092;2023-12-20T08:44:27;-0.58;97.04
66586;SHT30;53444;45.822;16.092;2023-12-20T08:46:53;-0.57;96.90
66586;SHT30;53444;45.822;16.092;2023-12-20T08:49:22;-0.75;97.97
66586;SHT30;53444;45.822;16.092;2023-12-20T08:51:50;-0.60;97.82
66586;SHT30;53444;45.822;16.092;2023-12-20T08:54:17;-0.34;97.59
66586;SHT30;53444;45.822;16.092;2023-12-20T08:56:46;-0.23;96.86
66586;SHT30;53444;45.822;16.092;2023-12-20T08:59:13;-0.23;96.87
66586;SHT30;53444;45.822;16.092;2023-12-20T09:01:39;-0.36;97.08
66586;SHT30;53444;45.822;16.092;2023-12-20T09:04:06;-0.06;97.08
66586;SHT30;53444;45.822;16.092;2023-12-20T09:06:33;0.17;96.55
66586;SHT30;53444;45.822;16.092;2023-12-20T09:09:00;0.37;95.98
66586;SHT30;53444;45.822;16.092;2023-12-20T09:11:28;0.38;95.55
66586;SHT30;53444;45.822;16.092;2023-12-20T09:13:56;0.44;95.68
66586;SHT30;53444;45.822;16.092;2023-12-20T09:16:22;0.60;95.59
66586;SHT30;53444;45.822;16.092;2023-12-20T09:18:49;0.77;95.39
66586;SHT30;53444;45.822;16.092;2023-12-20T09:21:17;0.81;95.96
66586;SHT30;53444;45.822;16.092;2023-12-20T09:23:44;0.96;95.27
66586;SHT30;53444;45.822;16.092;2023-12-20T09:26:10;1.01;95.09
66586;SHT30;53444;45.822;16.092;2023-12-20T09:28:37;1.16;94.77
66586;SHT30;53444;45.822;16.092;2023-12-20T09:31:07;1.27;94.64
66586;SHT30;53444;45.822;16.092;2023-12-20T09:33:34;1.44;94.11
66586;SHT30;53444;45.822;16.092;2023-12-20T09:36:00;1.59;93.92
66586;SHT30;53444;45.822;16.092;2023-12-20T09:38:27;1.72;94.17
66586;SHT30;53444;45.822;16.092;2023-12-20T09:40:54;1.72;94.10
66586;SHT30;53444;45.822;16.092;2023-12-20T09:43:23;1.91;93.93
66586;SHT30;53444;45.822;16.092;2023-12-20T09:45:53;2.12;94.10
66586;SHT30;53444;45.822;16.092;2023-12-20T09:48:21;2.29;94.58
66586;SHT30;53444;45.822;16.092;2023-12-20T09:50:48;2.44;93.99
66586;SHT30;53444;45.822;16.092;2023-12-20T09:53:16;2.61;93.89
66586;SHT30;53444;45.822;16.092;2023-12-20T09:55:44;2.83;94.30
66586;SHT30;53444;45.822;16.092;2023-12-20T09:58:11;2.89;93.15
66586;SHT30;53444;45.822;16.092;2023-12-20T10:00:38;3.11;93.19
66586;SHT30;53444;45.822;16.092;2023-12-20T10:03:06;3.25;92.65
66586;SHT30;53444;45.822;16.092;2023-12-20T10:05:34;3.05;91.87
66586;SHT30;53444;45.822;16.092;2023-12-20T10:08:01;3.36;92.20
66586;SHT30;53444;45.822;16.092;2023-12-20T10:10:28;3.63;92.44
66586;SHT30;53444;45.822;16.092;2023-12-20T10:13:03;3.70;91.83
66586;SHT30;53444;45.822;16.092;2023-12-20T10:15:30;3.87;91.91
66586;SHT30;53444;45.822;16.092;2023-12-20T10:17:57;4.07;91.52
66586;SHT30;53444;45.822;16.092;2023-12-20T10:20:24;4.21;91.39
66586;SHT30;53444;45.822;16.092;2023-12-20T10:22:53;4.24;90.77
66586;SHT30;53444;45.822;16.092;2023-12-20T10:25:21;4.24;90.67
66586;SHT30;53444;45.822;16.092;2023-12-20T10:27:48;4.28;90.30
66586;SHT30;53444;45.822;16.092;2023-12-20T10:30:16;4.29;90.55
66586;SHT30;53444;45.822;16.092;2023-12-20T10:32:42;4.34;90.27
66586;SHT30;53444;45.822;16.092;2023-12-20T10:35:09;4.56;90.08
66586;SHT30;53444;45.822;16.092;2023-12-20T10:37:36;4.69;89.69
66586;SHT30;53444;45.822;16.092;2023-12-20T10:40:06;4.79;89.67
66586;SHT30;53444;45.822;16.092;2023-12-20T10:42:33;5.11;88.87
66586;SHT30;53444;45.822;16.092;2023-12-20T10:45:01;5.34;87.94
66586;SHT30;53444;45.822;16.092;2023-12-20T10:47:30;5.51;88.14
66586;SHT30;53444;45.822;16.092;2023-12-20T10:49:59;5.65;87.50
66586;SHT30;53444;45.822;16.092;2023-12-20T10:52:27;5.85;86.83
66586;SHT30;53444;45.822;16.092;2023-12-20T10:54:55;5.91;86.25
66586;SHT30;53444;45.822;16.092;2023-12-20T10:57:27;5.93;86.05
66586;SHT30;53444;45.822;16.092;2023-12-20T10:59:54;6.17;85.68
66586;SHT30;53444;45.822;16.092;2023-12-20T11:02:22;6.57;85.23
66586;SHT30;53444;45.822;16.092;2023-12-20T11:04:54;6.94;84.03
66586;SHT30;53444;45.822;16.092;2023-12-20T11:07:40;6.99;83.72
66586;SHT30;53444;45.822;16.092;2023-12-20T11:10:13;7.04;82.59
66586;SHT30;53444;45.822;16.092;2023-12-20T11:12:48;6.97;82.45
66586;SHT30;53444;45.822;16.092;2023-12-20T11:15:16;6.89;82.80
66586;SHT30;53444;45.822;16.092;2023-12-20T11:17:44;7.02;82.90
66586;SHT30;53444;45.822;16.092;2023-12-20T11:20:11;7.05;81.64
66586;SHT30;53444;45.822;16.092;2023-12-20T11:22:40;7.35;82.20
66586;SHT30;53444;45.822;16.092;2023-12-20T11:25:17;7.49;80.88
66586;SHT30;53444;45.822;16.092;2023-12-20T11:28:10;7.50;80.67
66586;SHT30;53444;45.822;16.092;2023-12-20T11:30:46;7.74;81.03
66586;SHT30;53444;45.822;16.092;2023-12-20T11:33:14;7.74;79.98
66586;SHT30;53444;45.822;16.092;2023-12-20T11:35:41;7.79;80.79
66586;SHT30;53444;45.822;16.092;2023-12-20T11:38:09;7.20;81.79
66586;SHT30;53444;45.822;16.092;2023-12-20T11:40:36;7.01;82.44
66586;SHT30;53444;45.822;16.092;2023-12-20T11:43:03;6.70;82.73
66586;SHT30;53444;45.822;16.092;2023-12-20T11:45:32;6.22;83.99
66586;SHT30;53444;45.822;16.092;2023-12-20T11:48:00;6.20;84.65
66586;SHT30;53444;45.822;16.092;2023-12-20T11:50:28;5.89;85.64
66586;SHT30;53444;45.822;16.092;2023-12-20T11:52:56;5.59;86.09
66586;SHT30;53444;45.822;16.092;2023-12-20T11:55:23;5.50;86.44
66586;SHT30;53444;45.822;16.092;2023-12-20T11:57:50;5.41;87.26
66586;SHT30;53444;45.822;16.092;2023-12-20T12:00:17;5.33;87.55
66586;SHT30;53444;45.822;16.092;2023-12-20T12:02:56;5.27;87.56
66586;SHT30;53444;45.822;16.092;2023-12-20T12:05:23;5.30;87.55
66586;SHT30;53444;45.822;16.092;2023-12-20T12:07:51;5.31;87.82
66586;SHT30;53444;45.822;16.092;2023-12-20T12:10:18;5.30;88.41
66586;SHT30;53444;45.822;16.092;2023-12-20T12:12:44;5.41;88.11
66586;SHT30;53444;45.822;16.092;2023-12-20T12:15:11;4.84;89.79
66586;SHT30;53444;45.822;16.092;2023-12-20T12:17:38;5.33;88.67
66586;SHT30;53444;45.822;16.092;2023-12-20T12:20:08;5.33;88.68
66586;SHT30;53444;45.822;16.092;2023-12-20T12:22:35;5.65;87.61
66586;SHT30;53444;45.822;16.092;2023-12-20T12:25:10;5.17;88.15
66586;SHT30;53444;45.822;16.092;2023-12-20T12:27:37;5.28;88.52
66586;SHT30;53444;45.822;16.092;2023-12-20T12:30:06;5.58;88.29
66586;SHT30;53444;45.822;16.092;2023-12-20T12:32:34;5.64;88.10
66586;SHT30;53444;45.822;16.092;2023-12-20T12:35:03;5.89;87.69
66586;SHT30;53444;45.822;16.092;2023-12-20T12:37:34;5.98;86.61
66586;SHT30;53444;45.822;16.092;2023-12-20T12:40:01;5.81;87.60
66586;SHT30;53444;45.822;16.092;2023-12-20T12:42:28;5.28;89.41
66586;SHT30;53444;45.822;16.092;2023-12-20T12:44:55;5.40;89.15
66586;SHT30;53444;45.822;16.092;2023-12-20T12:47:22;5.28;89.67
66586;SHT30;53444;45.822;16.092;2023-12-20T12:49:51;5.41;89.23
66586;SHT30;53444;45.822;16.092;2023-12-20T12:52:22;5.48;89.15
66586;SHT30;53444;45.822;16.092;2023-12-20T12:54:50;5.48;88.91
66586;SHT30;53444;45.822;16.092;2023-12-20T12:57:17;5.48;89.00
66586;SHT30;53444;45.822;16.092;2023-12-20T12:59:44;5.41;89.24
66586;SHT30;53444;45.822;16.092;2023-12-20T13:02:11;4.99;90.56
66586;SHT30;53444;45.822;16.092;2023-12-20T13:04:39;5.04;90.78
66586;SHT30;53444;45.822;16.092;2023-12-20T13:07:06;5.17;90.36
66586;SHT30;53444;45.822;16.092;2023-12-20T13:09:32;5.19;90.18
66586;SHT30;53444;45.822;16.092;2023-12-20T13:12:01;5.26;90.21
66586;SHT30;53444;45.822;16.092;2023-12-20T13:14:29;5.27;90.18
66586;SHT30;53444;45.822;16.092;2023-12-20T13:16:56;5.23;89.99
66586;SHT30;53444;45.822;16.092;2023-12-20T13:19:22;5.16;90.68
66586;SHT30;53444;45.822;16.092;2023-12-20T13:21:49;5.21;90.48
66586;SHT30;53444;45.822;16.092;2023-12-20T13:24:16;4.94;91.23
66586;SHT30;53444;45.822;16.092;2023-12-20T13:26:44;4.86;92.02
66586;SHT30;53444;45.822;16.092;2023-12-20T13:29:12;4.79;92.09
66586;SHT30;53444;45.822;16.092;2023-12-20T13:31:40;4.59;92.66
66586;SHT30;53444;45.822;16.092;2023-12-20T13:34:07;4.56;93.35
66586;SHT30;53444;45.822;16.092;2023-12-20T13:36:34;4.60;93.12
66586;SHT30;53444;45.822;16.092;2023-12-20T13:39:01;4.63;92.93
66586;SHT30;53444;45.822;16.092;2023-12-20T13:41:30;4.66;93.03
66586;SHT30;53444;45.822;16.092;2023-12-20T13:43:57;4.75;92.61
66586;SHT30;53444;45.822;16.092;2023-12-20T13:46:25;4.79;92.81
66586;SHT30;53444;45.822;16.092;2023-12-20T13:48:52;4.83;92.70
66586;SHT30;53444;45.822;16.092;2023-12-20T13:51:19;4.90;92.61
66586;SHT30;53444;45.822;16.092;2023-12-20T13:53:47;4.96;92.31
66586;SHT30;53444;45.822;16.092;2023-12-20T13:56:14;4.96;92.15
66586;SHT30;53444;45.822;16.092;2023-12-20T13:58:41;4.92;92.30
66586;SHT30;53444;45.822;16.092;2023-12-20T14:01:08;4.70;93.06
66586;SHT30;53444;45.822;16.092;2023-12-20T14:03:37;4.59;93.35
66586;SHT30;53444;45.822;16.092;2023-12-20T14:06:04;4.46;94.19
66586;SHT30;53444;45.822;16.092;2023-12-20T14:08:31;4.60;93.90
66586;SHT30;53444;45.822;16.092;2023-12-20T14:10:58;4.63;93.73
66586;SHT30;53444;45.822;16.092;2023-12-20T14:13:26;4.62;93.97
66586;SHT30;53444;45.822;16.092;2023-12-20T14:15:53;4.68;93.68
66586;SHT30;53444;45.822;16.092;2023-12-20T14:18:20;4.65;93.32
66586;SHT30;53444;45.822;16.092;2023-12-20T14:20:49;4.42;94.21
66586;SHT30;53444;45.822;16.092;2023-12-20T14:23:16;4.49;93.94
66586;SHT30;53444;45.822;16.092;2023-12-20T14:25:43;4.52;93.78
66586;SHT30;53444;45.822;16.092;2023-12-20T14:28:09;4.58;93.87
66586;SHT30;53444;45.822;16.092;2023-12-20T14:30:39;4.56;93.96
66586;SHT30;53444;45.822;16.092;2023-12-20T14:33:06;4.69;93.77
66586;SHT30;53444;45.822;16.092;2023-12-20T14:35:33;4.68;93.85
66586;SHT30;53444;45.822;16.092;2023-12-20T14:38:01;4.65;93.84
66586;SHT30;53444;45.822;16.092;2023-12-20T14:40:28;4.63;94.09
66586;SHT30;53444;45.822;16.092;2023-12-20T14:42:55;4.68;94.03
66586;SHT30;53444;45.822;16.092;2023-12-20T14:45:22;4.66;94.05
66586;SHT30;53444;45.822;16.092;2023-12-20T14:47:49;4.63;94.09
66586;SHT30;53444;45.822;16.092;2023-12-20T14:50:16;4.65;94.27
66586;SHT30;53444;45.822;16.092;2023-12-20T14:52:44;4.62;94.40
66586;SHT30;53444;45.822;16.092;2023-12-20T14:55:13;4.59;94.53
66586;SHT30;53444;45.822;16.092;2023-12-20T14:57:40;4.59;94.50
66586;SHT30;53444;45.822;16.092;2023-12-20T15:00:07;4.59;94.27
66586;SHT30;53444;45.822;16.092;2023-12-20T15:02:34;4.56;94.29
66586;SHT30;53444;45.822;16.092;2023-12-20T15:05:01;4.55;94.60
66586;SHT30;53444;45.822;16.092;2023-12-20T15:07:28;4.51;94.80
66586;SHT30;53444;45.822;16.092;2023-12-20T15:09:55;4.49;94.92
66586;SHT30;53444;45.822;16.092;2023-12-20T15:12:23;4.45;94.99
66586;SHT30;53444;45.822;16.092;2023-12-20T15:14:50;4.48;95.01
66586;SHT30;53444;45.822;16.092;2023-12-20T15:17:17;4.41;95.14
66586;SHT30;53444;45.822;16.092;2023-12-20T15:19:43;4.42;95.04
66586;SHT30;53444;45.822;16.092;2023-12-20T15:22:10;4.49;95.34
66586;SHT30;53444;45.822;16.092;2023-12-20T15:24:37;4.51;95.04